sensor_id;sensor_type;location;lat;lon;timestamp;temperature;humidity
37782;DHT22;23621;50.878;4.584;2023-06-14T00:01:02;26.70;47.70
37782;DHT22;23621;50.878;4.584;2023-06-14T00:03:50;26.70;47.80
37782;DHT22;23621;50.878;4.584;2023-06-14T00:06:37;26.60;47.80
37782;DHT22;23621;50.878;4.584;2023-06-14T00:09:25;26.60;47.90
37782;DHT22;23621;50.878;4.584;2023-06-14T00:12:12;26.60;48.00
37782;DHT22;23621;50.878;4.584;2023-06-14T00:14:59;26.60;48.00
37782;DHT22;23621;50.878;4.584;2023-06-14T00:17:48;26.50;48.00
37782;DHT22;23621;50.878;4.584;2023-06-14T00:20:36;26.50;47.90
37782;DHT22;23621;50.878;4.584;2023-06-14T00:23:23;26.40;48.00
37782;DHT22;23621;50.878;4.584;2023-06-14T00:26:11;26.40;48.20
37782;DHT22;23621;50.878;4.584;2023-06-14T00:28:58;26.30;48.30
37782;DHT22;23621;50.878;4.584;2023-06-14T00:31:45;26.30;48.40
37782;DHT22;23621;50.878;4.584;2023-06-14T00:34:33;26.20;48.40
37782;DHT22;23621;50.878;4.584;2023-06-14T00:37:20;26.10;48.50
37782;DHT22;23621;50.878;4.584;2023-06-14T00:40:07;26.10;48.70
37782;DHT22;23621;50.878;4.584;2023-06-14T00:42:55;26.00;48.70
37782;DHT22;23621;50.878;4.584;2023-06-14T00:45:42;26.00;48.80
37782;DHT22;23621;50.878;4.584;2023-06-14T00:48:30;25.90;48.80
37782;DHT22;23621;50.878;4.584;2023-06-14T00:51:18;25.90;48.90
37782;DHT22;23621;50.878;4.584;2023-06-14T00:54:06;25.80;48.80
37782;DHT22;23621;50.878;4.584;2023-06-14T00:56:53;25.80;48.80
37782;DHT22;23621;50.878;4.584;2023-06-14T00:59:45;25.80;48.80
37782;DHT22;23621;50.878;4.584;2023-06-14T01:02:33;25.80;48.90
37782;DHT22;23621;50.878;4.584;2023-06-14T01:05:21;25.70;48.90
37782;DHT22;23621;50.878;4.584;2023-06-14T01:08:47;25.70;49.00
37782;DHT22;23621;50.878;4.584;2023-06-14T01:11:54;25.70;49.10
37782;DHT22;23621;50.878;4.584;2023-06-14T01:14:43;25.60;49.10
37782;DHT22;23621;50.878;4.584;2023-06-14T01:17:32;25.60;49.20
37782;DHT22;23621;50.878;4.584;2023-06-14T01:20:22;25.50;49.40
37782;DHT22;23621;50.878;4.584;2023-06-14T01:23:10;25.40;49.40
37782;DHT22;23621;50.878;4.584;2023-06-14T01:26:00;25.40;49.50
37782;DHT22;23621;50.878;4.584;2023-06-14T01:28:50;25.30;49.60
37782;DHT22;23621;50.878;4.584;2023-06-14T01:31:44;25.20;49.80
37782;DHT22;23621;50.878;4.584;2023-06-14T01:34:32;25.10;50.00
37782;DHT22;23621;50.878;4.584;2023-06-14T01:37:20;25.00;50.00
37782;DHT22;23621;50.878;4.584;2023-06-14T01:40:09;25.00;50.30
37782;DHT22;23621;50.878;4.584;2023-06-14T01:42:58;25.00;50.50
37782;DHT22;23621;50.878;4.584;2023-06-14T01:45:48;24.90;50.50
37782;DHT22;23621;50.878;4.584;2023-06-14T01:48:38;24.90;50.60
37782;DHT22;23621;50.878;4.584;2023-06-14T01:51:26;24.90;50.50
37782;DHT22;23621;50.878;4.584;2023-06-14T01:54:13;24.80;50.50
37782;DHT22;23621;50.878;4.584;2023-06-14T01:57:00;24.80;50.60
37782;DHT22;23621;50.878;4.584;2023-06-14T01:59:47;24.80;50.70
37782;DHT22;23621;50.878;4.584;2023-06-14T02:02:35;24.70;50.70
37782;DHT22;23621;50.878;4.584;2023-06-14T02:05:23;24.70;50.80
37782;DHT22;23621;50.878;4.584;2023-06-14T02:08:11;24.60;50.70
37782;DHT22;23621;50.878;4.584;2023-06-14T02:10:58;24.60;50.70
37782;DHT22;23621;50.878;4.584;2023-06-14T02:13:45;24.60;50.90
37782;DHT22;23621;50.878;4.584;2023-06-14T02:16:33;24.50;50.90
37782;DHT22;23621;50.878;4.584;2023-06-14T02:19:23;24.50;50.90
37782;DHT22;23621;50.878;4.584;2023-06-14T02:22:10;24.40;51.00
37782;DHT22;23621;50.878;4.584;2023-06-14T02:24:57;24.40;51.10
37782;DHT22;23621;50.878;4.584;2023-06-14T02:27:48;24.40;51.00
37782;DHT22;23621;50.878;4.584;2023-06-14T02:30:36;24.40;51.10
37782;DHT22;23621;50.878;4.584;2023-06-14T02:33:23;24.30;51.10
37782;DHT22;23621;50.878;4.584;2023-06-14T02:36:12;24.30;51.20
37782;DHT22;23621;50.878;4.584;2023-06-14T02:38:59;24.20;51.10
37782;DHT22;23621;50.878;4.584;2023-06-14T02:41:46;24.10;51.20
37782;DHT22;23621;50.878;4.584;2023-06-14T02:44:34;24.10;51.40
37782;DHT22;23621;50.878;4.584;2023-06-14T02:47:22;24.00;51.50
37782;DHT22;23621;50.878;4.584;2023-06-14T02:50:09;24.00;51.70
37782;DHT22;23621;50.878;4.584;2023-06-14T02:52:57;23.90;51.80
37782;DHT22;23621;50.878;4.584;2023-06-14T02:55:44;23.80;51.80
37782;DHT22;23621;50.878;4.584;2023-06-14T02:58:36;23.80;51.90
37782;DHT22;23621;50.878;4.584;2023-06-14T03:01:27;23.70;52.00
37782;DHT22;23621;50.878;4.584;2023-06-14T03:04:21;23.70;52.20
37782;DHT22;23621;50.878;4.584;2023-06-14T03:07:08;23.60;52.20
37782;DHT22;23621;50.878;4.584;2023-06-14T03:09:59;23.60;52.20
37782;DHT22;23621;50.878;4.584;2023-06-14T03:12:46;23.60;52.30
37782;DHT22;23621;50.878;4.584;2023-06-14T03:15:34;23.60;52.30
37782;DHT22;23621;50.878;4.584;2023-06-14T03:18:22;23.60;52.30
37782;DHT22;23621;50.878;4.584;2023-06-14T03:21:13;23.60;53.10
37782;DHT22;23621;50.878;4.584;2023-06-14T03:24:03;23.60;52.40
37782;DHT22;23621;50.878;4.584;2023-06-14T03:26:50;23.50;52.30
37782;DHT22;23621;50.878;4.584;2023-06-14T03:29:38;23.50;52.30
37782;DHT22;23621;50.878;4.584;2023-06-14T03:32:25;23.50;52.30
37782;DHT22;23621;50.878;4.584;2023-06-14T03:35:12;23.50;52.30
37782;DHT22;23621;50.878;4.584;2023-06-14T03:38:04;23.50;52.40
37782;DHT22;23621;50.878;4.584;2023-06-14T03:40:51;23.40;52.50
37782;DHT22;23621;50.878;4.584;2023-06-14T03:43:38;23.40;52.50
37782;DHT22;23621;50.878;4.584;2023-06-14T03:46:26;23.40;52.50
37782;DHT22;23621;50.878;4.584;2023-06-14T03:49:14;23.40;52.60
37782;DHT22;23621;50.878;4.584;2023-06-14T03:52:03;23.40;52.60
37782;DHT22;23621;50.878;4.584;2023-06-14T03:54:51;23.30;52.60
37782;DHT22;23621;50.878;4.584;2023-06-14T03:57:41;23.30;52.60
37782;DHT22;23621;50.878;4.584;2023-06-14T04:00:28;23.30;52.70
37782;DHT22;23621;50.878;4.584;2023-06-14T04:03:16;23.20;52.70
37782;DHT22;23621;50.878;4.584;2023-06-14T04:06:04;23.20;52.80
37782;DHT22;23621;50.878;4.584;2023-06-14T04:08:52;23.20;52.90
37782;DHT22;23621;50.878;4.584;2023-06-14T04:11:40;23.20;53.10
37782;DHT22;23621;50.878;4.584;2023-06-14T04:14:27;23.20;53.10
37782;DHT22;23621;50.878;4.584;2023-06-14T04:17:14;23.20;53.20
37782;DHT22;23621;50.878;4.584;2023-06-14T04:20:02;23.20;53.30
37782;DHT22;23621;50.878;4.584;2023-06-14T04:22:53;23.30;53.50
37782;DHT22;23621;50.878;4.584;2023-06-14T04:25:41;23.30;53.70
37782;DHT22;23621;50.878;4.584;2023-06-14T04:28:32;23.20;53.70
37782;DHT22;23621;50.878;4.584;2023-06-14T04:31:19;23.30;53.90
37782;DHT22;23621;50.878;4.584;2023-06-14T04:34:09;23.30;54.10
37782;DHT22;23621;50.878;4.584;2023-06-14T04:37:02;23.30;54.10
37782;DHT22;23621;50.878;4.584;2023-06-14T04:39:50;23.30;54.30
37782;DHT22;23621;50.878;4.584;2023-06-14T04:42:38;23.30;54.60
37782;DHT22;23621;50.878;4.584;2023-06-14T04:45:28;23.30;54.70
37782;DHT22;23621;50.878;4.584;2023-06-14T04:48:18;23.30;54.90
37782;DHT22;23621;50.878;4.584;2023-06-14T04:51:08;23.40;55.20
37782;DHT22;23621;50.878;4.584;2023-06-14T04:53:56;23.40;55.20
37782;DHT22;23621;50.878;4.584;2023-06-14T04:56:46;23.40;55.20
37782;DHT22;23621;50.878;4.584;2023-06-14T04:59:33;23.50;55.10
37782;DHT22;23621;50.878;4.584;2023-06-14T05:02:23;23.50;54.80
37782;DHT22;23621;50.878;4.584;2023-06-14T05:05:11;23.60;55.10
37782;DHT22;23621;50.878;4.584;2023-06-14T05:07:58;23.60;55.10
37782;DHT22;23621;50.878;4.584;2023-06-14T05:10:45;23.60;55.10
37782;DHT22;23621;50.878;4.584;2023-06-14T05:13:33;23.70;55.40
37782;DHT22;23621;50.878;4.584;2023-06-14T05:16:21;23.70;55.50
37782;DHT22;23621;50.878;4.584;2023-06-14T05:19:10;23.80;55.70
37782;DHT22;23621;50.878;4.584;2023-06-14T05:21:57;23.80;55.70
37782;DHT22;23621;50.878;4.584;2023-06-14T05:24:44;23.90;55.90
37782;DHT22;23621;50.878;4.584;2023-06-14T05:27:32;24.00;55.70
37782;DHT22;23621;50.878;4.584;2023-06-14T05:30:22;24.00;55.20
37782;DHT22;23621;50.878;4.584;2023-06-14T05:33:10;24.10;54.60
37782;DHT22;23621;50.878;4.584;2023-06-14T05:35:57;24.20;54.30
37782;DHT22;23621;50.878;4.584;2023-06-14T05:38:45;24.20;54.50
37782;DHT22;23621;50.878;4.584;2023-06-14T05:41:32;24.30;54.40
37782;DHT22;23621;50.878;4.584;2023-06-14T05:44:19;24.30;53.80
37782;DHT22;23621;50.878;4.584;2023-06-14T05:47:07;24.40;53.60
37782;DHT22;23621;50.878;4.584;2023-06-14T05:49:54;24.40;53.80
37782;DHT22;23621;50.878;4.584;2023-06-14T05:52:42;24.60;53.70
37782;DHT22;23621;50.878;4.584;2023-06-14T05:55:29;24.60;53.40
37782;DHT22;23621;50.878;4.584;2023-06-14T05:58:17;24.70;53.10
37782;DHT22;23621;50.878;4.584;2023-06-14T06:01:04;24.80;52.90
37782;DHT22;23621;50.878;4.584;2023-06-14T06:03:51;24.90;52.80
37782;DHT22;23621;50.878;4.584;2023-06-14T06:06:38;25.00;52.70
37782;DHT22;23621;50.878;4.584;2023-06-14T06:09:26;25.00;52.80
37782;DHT22;23621;50.878;4.584;2023-06-14T06:12:14;25.00;53.00
37782;DHT22;23621;50.878;4.584;2023-06-14T06:15:01;25.10;53.40
37782;DHT22;23621;50.878;4.584;2023-06-14T06:17:48;25.20;53.70
37782;DHT22;23621;50.878;4.584;2023-06-14T06:20:42;25.20;53.60
37782;DHT22;23621;50.878;4.584;2023-06-14T06:23:31;25.30;53.30
37782;DHT22;23621;50.878;4.584;2023-06-14T06:26:18;25.40;52.90
37782;DHT22;23621;50.878;4.584;2023-06-14T06:29:05;25.50;52.40
37782;DHT22;23621;50.878;4.584;2023-06-14T06:31:53;25.60;52.10
37782;DHT22;23621;50.878;4.584;2023-06-14T06:34:40;25.70;51.80
37782;DHT22;23621;50.878;4.584;2023-06-14T06:37:27;25.80;51.70
37782;DHT22;23621;50.878;4.584;2023-06-14T06:40:14;25.90;51.70
37782;DHT22;23621;50.878;4.584;2023-06-14T06:43:02;26.00;51.70
37782;DHT22;23621;50.878;4.584;2023-06-14T06:45:50;26.10;51.70
37782;DHT22;23621;50.878;4.584;2023-06-14T06:48:37;26.20;51.70
37782;DHT22;23621;50.878;4.584;2023-06-14T06:51:24;26.20;51.70
37782;DHT22;23621;50.878;4.584;2023-06-14T06:54:11;26.30;51.80
37782;DHT22;23621;50.878;4.584;2023-06-14T06:56:59;26.40;51.60
37782;DHT22;23621;50.878;4.584;2023-06-14T06:59:48;26.40;51.50
37782;DHT22;23621;50.878;4.584;2023-06-14T07:02:35;26.50;51.60
37782;DHT22;23621;50.878;4.584;2023-06-14T07:05:23;26.60;51.40
37782;DHT22;23621;50.878;4.584;2023-06-14T07:08:11;26.60;51.00
37782;DHT22;23621;50.878;4.584;2023-06-14T07:10:58;26.70;50.60
37782;DHT22;23621;50.878;4.584;2023-06-14T07:13:45;26.70;50.60
37782;DHT22;23621;50.878;4.584;2023-06-14T07:16:33;26.80;50.20
37782;DHT22;23621;50.878;4.584;2023-06-14T07:19:20;26.90;50.20
37782;DHT22;23621;50.878;4.584;2023-06-14T07:22:07;26.90;49.80
37782;DHT22;23621;50.878;4.584;2023-06-14T07:24:55;27.00;49.60
37782;DHT22;23621;50.878;4.584;2023-06-14T07:27:43;27.10;49.60
37782;DHT22;23621;50.878;4.584;2023-06-14T07:30:30;27.10;49.30
37782;DHT22;23621;50.878;4.584;2023-06-14T07:33:18;27.20;49.20
37782;DHT22;23621;50.878;4.584;2023-06-14T07:36:05;27.20;49.00
37782;DHT22;23621;50.878;4.584;2023-06-14T07:38:52;27.30;48.60
37782;DHT22;23621;50.878;4.584;2023-06-14T07:41:40;27.30;48.30
37782;DHT22;23621;50.878;4.584;2023-06-14T07:44:29;27.30;48.50
37782;DHT22;23621;50.878;4.584;2023-06-14T07:47:18;27.40;48.60
37782;DHT22;23621;50.878;4.584;2023-06-14T07:50:05;27.50;48.30
37782;DHT22;23621;50.878;4.584;2023-06-14T07:52:53;27.60;48.30
37782;DHT22;23621;50.878;4.584;2023-06-14T07:55:40;27.70;48.30
37782;DHT22;23621;50.878;4.584;2023-06-14T07:58:39;27.70;48.00
37782;DHT22;23621;50.878;4.584;2023-06-14T08:01:27;27.80;48.00
37782;DHT22;23621;50.878;4.584;2023-06-14T08:04:15;27.80;47.70
37782;DHT22;23621;50.878;4.584;2023-06-14T08:07:02;27.90;47.70
37782;DHT22;23621;50.878;4.584;2023-06-14T08:09:53;27.90;48.00
37782;DHT22;23621;50.878;4.584;2023-06-14T08:12:40;28.00;48.40
37782;DHT22;23621;50.878;4.584;2023-06-14T08:15:28;28.00;48.50
37782;DHT22;23621;50.878;4.584;2023-06-14T08:18:15;28.10;48.50
37782;DHT22;23621;50.878;4.584;2023-06-14T08:21:02;28.20;48.60
37782;DHT22;23621;50.878;4.584;2023-06-14T08:23:50;28.20;48.80
37782;DHT22;23621;50.878;4.584;2023-06-14T08:26:40;28.30;48.70
37782;DHT22;23621;50.878;4.584;2023-06-14T08:29:27;28.30;48.50
37782;DHT22;23621;50.878;4.584;2023-06-14T08:32:16;28.40;48.80
37782;DHT22;23621;50.878;4.584;2023-06-14T08:35:04;28.40;48.10
37782;DHT22;23621;50.878;4.584;2023-06-14T08:37:52;28.50;47.60
37782;DHT22;23621;50.878;4.584;2023-06-14T08:40:41;28.50;47.40
37782;DHT22;23621;50.878;4.584;2023-06-14T08:43:29;28.60;47.40
37782;DHT22;23621;50.878;4.584;2023-06-14T08:46:17;28.60;47.70
37782;DHT22;23621;50.878;4.584;2023-06-14T08:49:06;28.70;47.60
37782;DHT22;23621;50.878;4.584;2023-06-14T08:52:00;28.70;47.10
37782;DHT22;23621;50.878;4.584;2023-06-14T08:54:48;28.80;47.50
37782;DHT22;23621;50.878;4.584;2023-06-14T08:57:37;28.90;47.40
37782;DHT22;23621;50.878;4.584;2023-06-14T09:00:26;28.90;47.10
37782;DHT22;23621;50.878;4.584;2023-06-14T09:03:14;29.00;46.80
37782;DHT22;23621;50.878;4.584;2023-06-14T09:06:02;29.00;46.70
37782;DHT22;23621;50.878;4.584;2023-06-14T09:08:51;29.00;46.70
37782;DHT22;23621;50.878;4.584;2023-06-14T09:11:42;29.10;46.70
37782;DHT22;23621;50.878;4.584;2023-06-14T09:14:29;29.20;47.00
37782;DHT22;23621;50.878;4.584;2023-06-14T09:17:16;29.20;46.90
37782;DHT22;23621;50.878;4.584;2023-06-14T09:20:04;29.30;46.50
37782;DHT22;23621;50.878;4.584;2023-06-14T09:22:53;29.40;46.50
37782;DHT22;23621;50.878;4.584;2023-06-14T09:25:45;29.40;45.80
37782;DHT22;23621;50.878;4.584;2023-06-14T09:28:33;29.50;45.80
37782;DHT22;23621;50.878;4.584;2023-06-14T09:31:21;29.50;45.60
37782;DHT22;23621;50.878;4.584;2023-06-14T09:34:09;29.60;45.50
37782;DHT22;23621;50.878;4.584;2023-06-14T09:36:56;29.60;45.20
37782;DHT22;23621;50.878;4.584;2023-06-14T09:39:50;29.70;45.20
37782;DHT22;23621;50.878;4.584;2023-06-14T09:42:38;29.70;45.40
37782;DHT22;23621;50.878;4.584;2023-06-14T09:45:26;29.80;45.00
37782;DHT22;23621;50.878;4.584;2023-06-14T09:48:16;29.80;44.30
37782;DHT22;23621;50.878;4.584;2023-06-14T09:51:05;29.90;44.70
37782;DHT22;23621;50.878;4.584;2023-06-14T09:53:55;29.90;44.30
37782;DHT22;23621;50.878;4.584;2023-06-14T09:56:47;30.00;43.60
37782;DHT22;23621;50.878;4.584;2023-06-14T09:59:36;30.10;42.90
37782;DHT22;23621;50.878;4.584;2023-06-14T10:02:29;30.10;42.40
37782;DHT22;23621;50.878;4.584;2023-06-14T10:05:19;30.20;41.10
37782;DHT22;23621;50.878;4.584;2023-06-14T10:08:09;30.20;41.50
37782;DHT22;23621;50.878;4.584;2023-06-14T10:10:57;30.30;41.60
37782;DHT22;23621;50.878;4.584;2023-06-14T10:13:44;30.30;40.60
37782;DHT22;23621;50.878;4.584;2023-06-14T10:16:48;30.30;40.40
37782;DHT22;23621;50.878;4.584;2023-06-14T10:19:55;30.40;40.40
37782;DHT22;23621;50.878;4.584;2023-06-14T10:23:02;30.50;40.80
37782;DHT22;23621;50.878;4.584;2023-06-14T10:25:54;30.60;40.60
37782;DHT22;23621;50.878;4.584;2023-06-14T10:29:01;30.70;40.80
37782;DHT22;23621;50.878;4.584;2023-06-14T10:31:58;30.70;40.60
37782;DHT22;23621;50.878;4.584;2023-06-14T10:34:45;30.70;39.80
37782;DHT22;23621;50.878;4.584;2023-06-14T10:37:40;30.80;39.30
37782;DHT22;23621;50.878;4.584;2023-06-14T10:40:31;30.80;39.90
37782;DHT22;23621;50.878;4.584;2023-06-14T10:43:22;30.90;39.20
37782;DHT22;23621;50.878;4.584;2023-06-14T10:46:18;30.90;38.80
37782;DHT22;23621;50.878;4.584;2023-06-14T10:49:10;30.90;39.10
37782;DHT22;23621;50.878;4.584;2023-06-14T10:51:57;31.00;38.90
37782;DHT22;23621;50.878;4.584;2023-06-14T10:55:16;31.10;38.70
37782;DHT22;23621;50.878;4.584;2023-06-14T10:58:09;31.00;38.20
37782;DHT22;23621;50.878;4.584;2023-06-14T11:00:56;31.00;38.80
37782;DHT22;23621;50.878;4.584;2023-06-14T11:03:50;31.10;38.50
37782;DHT22;23621;50.878;4.584;2023-06-14T11:06:47;31.10;37.60
37782;DHT22;23621;50.878;4.584;2023-06-14T11:09:51;31.10;37.20
37782;DHT22;23621;50.878;4.584;2023-06-14T11:12:48;31.20;38.00
37782;DHT22;23621;50.878;4.584;2023-06-14T11:15:36;31.30;37.20
37782;DHT22;23621;50.878;4.584;2023-06-14T11:18:24;31.30;36.90
37782;DHT22;23621;50.878;4.584;2023-06-14T11:21:16;31.30;37.40
37782;DHT22;23621;50.878;4.584;2023-06-14T11:24:03;31.40;37.00
37782;DHT22;23621;50.878;4.584;2023-06-14T11:26:50;31.40;37.30
37782;DHT22;23621;50.878;4.584;2023-06-14T11:29:38;31.50;37.30
37782;DHT22;23621;50.878;4.584;2023-06-14T11:32:25;31.50;37.10
37782;DHT22;23621;50.878;4.584;2023-06-14T11:35:13;31.60;36.80
37782;DHT22;23621;50.878;4.584;2023-06-14T11:38:01;31.60;36.00
37782;DHT22;23621;50.878;4.584;2023-06-14T11:40:49;31.70;36.00
37782;DHT22;23621;50.878;4.584;2023-06-14T11:43:36;31.70;36.30
37782;DHT22;23621;50.878;4.584;2023-06-14T11:46:27;31.70;36.70
37782;DHT22;23621;50.878;4.584;2023-06-14T11:49:14;31.70;36.60
37782;DHT22;23621;50.878;4.584;2023-06-14T11:52:02;31.70;36.40
37782;DHT22;23621;50.878;4.584;2023-06-14T11:54:49;31.80;36.30
37782;DHT22;23621;50.878;4.584;2023-06-14T11:57:36;31.80;35.70
37782;DHT22;23621;50.878;4.584;2023-06-14T12:00:26;31.90;35.80
37782;DHT22;23621;50.878;4.584;2023-06-14T12:03:14;31.90;36.00
37782;DHT22;23621;50.878;4.584;2023-06-14T12:06:06;32.00;36.10
37782;DHT22;23621;50.878;4.584;2023-06-14T12:08:56;32.10;36.60
37782;DHT22;23621;50.878;4.584;2023-06-14T12:11:44;32.10;36.70
37782;DHT22;23621;50.878;4.584;2023-06-14T12:14:31;32.00;36.40
37782;DHT22;23621;50.878;4.584;2023-06-14T12:17:19;32.10;36.80
37782;DHT22;23621;50.878;4.584;2023-06-14T12:20:14;32.10;36.80
37782;DHT22;23621;50.878;4.584;2023-06-14T12:23:03;32.10;36.90
37782;DHT22;23621;50.878;4.584;2023-06-14T12:25:51;32.10;36.70
37782;DHT22;23621;50.878;4.584;2023-06-14T12:28:40;32.10;36.40
37782;DHT22;23621;50.878;4.584;2023-06-14T12:31:29;32.10;36.20
37782;DHT22;23621;50.878;4.584;2023-06-14T12:34:16;32.10;36.30
37782;DHT22;23621;50.878;4.584;2023-06-14T12:37:04;32.20;36.10
37782;DHT22;23621;50.878;4.584;2023-06-14T12:39:51;32.20;35.90
37782;DHT22;23621;50.878;4.584;2023-06-14T12:42:39;32.20;35.30
37782;DHT22;23621;50.878;4.584;2023-06-14T12:45:26;32.30;34.80
37782;DHT22;23621;50.878;4.584;2023-06-14T12:48:14;32.30;34.30
37782;DHT22;23621;50.878;4.584;2023-06-14T12:51:02;32.40;34.60
37782;DHT22;23621;50.878;4.584;2023-06-14T12:53:49;32.40;34.50
37782;DHT22;23621;50.878;4.584;2023-06-14T12:56:37;32.40;34.40
37782;DHT22;23621;50.878;4.584;2023-06-14T12:59:24;32.50;34.40
37782;DHT22;23621;50.878;4.584;2023-06-14T13:02:13;32.50;34.30
37782;DHT22;23621;50.878;4.584;2023-06-14T13:05:00;32.60;34.10
37782;DHT22;23621;50.878;4.584;2023-06-14T13:07:50;32.60;33.80
37782;DHT22;23621;50.878;4.584;2023-06-14T13:10:38;32.60;34.20
37782;DHT22;23621;50.878;4.584;2023-06-14T13:13:25;32.70;33.60
37782;DHT22;23621;50.878;4.584;2023-06-14T13:16:12;32.70;32.70
37782;DHT22;23621;50.878;4.584;2023-06-14T13:19:01;32.80;32.40
37782;DHT22;23621;50.878;4.584;2023-06-14T13:21:49;32.80;32.50
37782;DHT22;23621;50.878;4.584;2023-06-14T13:24:37;32.80;33.30
37782;DHT22;23621;50.878;4.584;2023-06-14T13:27:25;32.80;32.70
37782;DHT22;23621;50.878;4.584;2023-06-14T13:30:12;32.80;32.30
37782;DHT22;23621;50.878;4.584;2023-06-14T13:33:00;32.80;32.40
37782;DHT22;23621;50.878;4.584;2023-06-14T13:35:48;32.90;32.70
37782;DHT22;23621;50.878;4.584;2023-06-14T13:38:35;32.90;32.00
37782;DHT22;23621;50.878;4.584;2023-06-14T13:41:23;33.00;32.00
37782;DHT22;23621;50.878;4.584;2023-06-14T13:44:10;33.00;32.00
37782;DHT22;23621;50.878;4.584;2023-06-14T13:47:03;33.00;31.40
37782;DHT22;23621;50.878;4.584;2023-06-14T13:49:50;33.00;30.70
37782;DHT22;23621;50.878;4.584;2023-06-14T13:52:37;33.10;31.10
37782;DHT22;23621;50.878;4.584;2023-06-14T13:55:25;33.10;31.40
37782;DHT22;23621;50.878;4.584;2023-06-14T13:58:12;33.20;32.00
37782;DHT22;23621;50.878;4.584;2023-06-14T14:01:01;33.20;32.20
37782;DHT22;23621;50.878;4.584;2023-06-14T14:03:49;33.20;31.90
37782;DHT22;23621;50.878;4.584;2023-06-14T14:06:37;33.30;31.80
37782;DHT22;23621;50.878;4.584;2023-06-14T14:09:24;33.30;31.30
37782;DHT22;23621;50.878;4.584;2023-06-14T14:12:11;33.40;31.20
37782;DHT22;23621;50.878;4.584;2023-06-14T14:14:59;33.40;31.00
37782;DHT22;23621;50.878;4.584;2023-06-14T14:17:46;33.40;31.30
37782;DHT22;23621;50.878;4.584;2023-06-14T14:20:34;33.40;31.10
37782;DHT22;23621;50.878;4.584;2023-06-14T14:23:22;33.40;31.10
37782;DHT22;23621;50.878;4.584;2023-06-14T14:26:09;33.40;30.10
37782;DHT22;23621;50.878;4.584;2023-06-14T14:28:56;33.40;29.90
37782;DHT22;23621;50.878;4.584;2023-06-14T14:31:44;33.40;29.60
37782;DHT22;23621;50.878;4.584;2023-06-14T14:34:31;33.30;30.00
37782;DHT22;23621;50.878;4.584;2023-06-14T14:37:18;33.40;30.50
37782;DHT22;23621;50.878;4.584;2023-06-14T14:40:06;33.40;30.60
37782;DHT22;23621;50.878;4.584;2023-06-14T14:42:55;33.40;31.10
37782;DHT22;23621;50.878;4.584;2023-06-14T14:45:43;33.50;30.90
37782;DHT22;23621;50.878;4.584;2023-06-14T14:48:30;33.50;30.80
37782;DHT22;23621;50.878;4.584;2023-06-14T14:51:17;33.60;30.30
37782;DHT22;23621;50.878;4.584;2023-06-14T14:54:05;33.60;30.00
37782;DHT22;23621;50.878;4.584;2023-06-14T14:56:52;33.70;30.20
37782;DHT22;23621;50.878;4.584;2023-06-14T14:59:39;33.80;30.40
37782;DHT22;23621;50.878;4.584;2023-06-14T15:02:27;33.80;30.50
37782;DHT22;23621;50.878;4.584;2023-06-14T15:05:14;33.80;30.30
37782;DHT22;23621;50.878;4.584;2023-06-14T15:08:01;33.90;30.50
37782;DHT22;23621;50.878;4.584;2023-06-14T15:10:49;33.90;30.50
37782;DHT22;23621;50.878;4.584;2023-06-14T15:13:36;33.90;30.30
37782;DHT22;23621;50.878;4.584;2023-06-14T15:16:24;34.00;31.10
37782;DHT22;23621;50.878;4.584;2023-06-14T15:19:11;34.10;30.50
37782;DHT22;23621;50.878;4.584;2023-06-14T15:21:58;34.10;30.60
37782;DHT22;23621;50.878;4.584;2023-06-14T15:24:46;34.20;31.60
37782;DHT22;23621;50.878;4.584;2023-06-14T15:27:36;34.30;30.90
37782;DHT22;23621;50.878;4.584;2023-06-14T15:30:23;34.30;31.10
37782;DHT22;23621;50.878;4.584;2023-06-14T15:33:11;34.40;30.70
37782;DHT22;23621;50.878;4.584;2023-06-14T15:35:58;34.50;30.60
37782;DHT22;23621;50.878;4.584;2023-06-14T15:38:45;34.60;30.20
37782;DHT22;23621;50.878;4.584;2023-06-14T15:41:33;35.00;30.00
37782;DHT22;23621;50.878;4.584;2023-06-14T15:44:20;35.90;29.50
37782;DHT22;23621;50.878;4.584;2023-06-14T15:47:08;37.40;28.60
37782;DHT22;23621;50.878;4.584;2023-06-14T15:49:55;39.10;27.60
37782;DHT22;23621;50.878;4.584;2023-06-14T15:52:42;40.80;26.80
37782;DHT22;23621;50.878;4.584;2023-06-14T15:55:30;42.10;25.80
37782;DHT22;23621;50.878;4.584;2023-06-14T15:58:17;43.40;25.10
37782;DHT22;23621;50.878;4.584;2023-06-14T16:01:04;44.50;24.20
37782;DHT22;23621;50.878;4.584;2023-06-14T16:03:52;45.40;23.60
37782;DHT22;23621;50.878;4.584;2023-06-14T16:06:39;46.20;23.20
37782;DHT22;23621;50.878;4.584;2023-06-14T16:09:26;46.90;23.00
37782;DHT22;23621;50.878;4.584;2023-06-14T16:12:13;47.40;22.00
37782;DHT22;23621;50.878;4.584;2023-06-14T16:15:01;47.80;21.90
37782;DHT22;23621;50.878;4.584;2023-06-14T16:17:48;48.00;21.40
37782;DHT22;23621;50.878;4.584;2023-06-14T16:20:36;48.30;21.30
37782;DHT22;23621;50.878;4.584;2023-06-14T16:23:23;48.60;21.20
37782;DHT22;23621;50.878;4.584;2023-06-14T16:26:11;48.80;20.60
37782;DHT22;23621;50.878;4.584;2023-06-14T16:29:01;49.00;20.40
37782;DHT22;23621;50.878;4.584;2023-06-14T16:31:49;49.10;19.90
37782;DHT22;23621;50.878;4.584;2023-06-14T16:34:36;49.40;19.80
37782;DHT22;23621;50.878;4.584;2023-06-14T16:37:24;49.60;19.70
37782;DHT22;23621;50.878;4.584;2023-06-14T16:40:11;49.80;19.30
37782;DHT22;23621;50.878;4.584;2023-06-14T16:42:59;49.80;19.30
37782;DHT22;23621;50.878;4.584;2023-06-14T16:45:46;49.70;19.10
37782;DHT22;23621;50.878;4.584;2023-06-14T16:48:33;49.80;18.90
37782;DHT22;23621;50.878;4.584;2023-06-14T16:51:20;49.80;18.80
37782;DHT22;23621;50.878;4.584;2023-06-14T16:54:08;49.90;18.90
37782;DHT22;23621;50.878;4.584;2023-06-14T16:56:55;50.10;19.10
37782;DHT22;23621;50.878;4.584;2023-06-14T16:59:42;50.20;18.70
37782;DHT22;23621;50.878;4.584;2023-06-14T17:02:29;50.40;18.50
37782;DHT22;23621;50.878;4.584;2023-06-14T17:05:17;50.50;18.30
37782;DHT22;23621;50.878;4.584;2023-06-14T17:08:05;50.50;18.20
37782;DHT22;23621;50.878;4.584;2023-06-14T17:10:53;50.50;18.10
37782;DHT22;23621;50.878;4.584;2023-06-14T17:13:40;50.50;18.00
37782;DHT22;23621;50.878;4.584;2023-06-14T17:16:28;50.50;18.20
37782;DHT22;23621;50.878;4.584;2023-06-14T17:19:15;50.50;18.60
37782;DHT22;23621;50.878;4.584;2023-06-14T17:22:03;50.50;18.30
37782;DHT22;23621;50.878;4.584;2023-06-14T17:24:51;50.40;18.20
37782;DHT22;23621;50.878;4.584;2023-06-14T17:27:38;50.30;18.30
37782;DHT22;23621;50.878;4.584;2023-06-14T17:30:25;50.20;18.00
37782;DHT22;23621;50.878;4.584;2023-06-14T17:33:12;50.20;18.00
37782;DHT22;23621;50.878;4.584;2023-06-14T17:36:02;50.10;18.00
37782;DHT22;23621;50.878;4.584;2023-06-14T17:38:49;50.10;17.90
37782;DHT22;23621;50.878;4.584;2023-06-14T17:41:37;50.10;17.90
37782;DHT22;23621;50.878;4.584;2023-06-14T17:44:24;50.10;18.00